Terminal Aerodrome Forecast
Issued by NWS Milwaukee/Sullivan, WI

Home | Current Version | Previous Version | Text Only | Print | Product List | Glossary On
Versions: 1 2 3 4 5 6 7 8 9 10 11 12 13 14 15 16 17 18 19 20 21 22 23 24 25 26 27 28 29 30 31 32 33 34 35 36 37 38 39 40 41 42 43 44 45 46 47 48 49 50
000
FTUS43 KMKX 280301 AAA
TAFMKE
TAF AMD
KMKE 280301Z 2803/2906 29004KT P6SM SCT030 SCT200
     FM281000 23004KT P6SM BKN100
     FM281200 20006KT P6SM OVC035
     FM281300 19007KT 2SM -SN OVC025
      TEMPO 2814/2817 1SM -SN OVC011
     FM281700 18011KT 6SM -SN OVC025
     FM281900 18013KT P6SM OVC025
     FM282000 18014KT P6SM OVC020
     FM290000 18007KT P6SM OVC015=

USA.gov is the U.S. government's official web portal to all federal, state and local government web resources and services.